LIPQ Airport Information

Runway Information
Runway 09 Length 9843 ft width 148 ft
Elevation 37 ft Threshold 656 ft Heading 90
Runway 27 Length 9843 ft Width 148 ft
Elevation 36 ft Threshold 0 ft Heading 270
Airport Frequencies
Type APP Name APP Frequency 119.175 MHZ
Type TWR Name TWR Frequency 130.2 MHZ
Airport Navaids
Type VOR-DME Name Ronchi Frequency 114200 KHZ
Type NDB Name Ronchi Frequency 396 KHZ
Airport Weather Information & NOTAM
ADDS - METARS form results

(1540 UTC 29 May 2020)
Data provider http://aviationweather.gov/metar/data/
 
METAR text: LIPQ 291520Z AUTO 27006KT 9999 FEW077/// BKN110/// 21/10 Q1018
Conditions at: LIPQ (RONCHI LEGIONARI, IT) observed 1520 UTC 29 May 2020
Temperature: 21.0°C (70°F)
Dewpoint: 10.0°C (50°F) [RH = 49%]
Pressure (altimeter): 30.06 inches Hg (1018.0 mb)
Winds: from the W (270 degrees) at 7 MPH (6 knots; 3.1 m/s)
Visibility: 6 or more miles (10+ km)
Ceiling: 11000 feet AGL
Clouds: few clouds at 7700 feet AGL
broken clouds at 11000 feet AGL
Weather: no significant weather observed at this time

METAR text: LIPQ 291450Z AUTO 31004KT 270V340 9999 FEW094/// BKN110/// 22/09 Q1018
Conditions at: LIPQ (RONCHI LEGIONARI, IT) observed 1450 UTC 29 May 2020
Temperature: 22.0°C (72°F)
Dewpoint: 9.0°C (48°F) [RH = 43%]
Pressure (altimeter): 30.06 inches Hg (1018.0 mb)
Winds: from the NW (310 degrees) at 5 MPH (4 knots; 2.1 m/s)
Visibility: 6 or more miles (10+ km)
Ceiling: 11000 feet AGL
Clouds: few clouds at 9400 feet AGL
broken clouds at 11000 feet AGL
Weather: no significant weather observed at this time

Forecast for: LIPQ (RONCHI LEGIONARI, IT)
Text: TAF LIPQ 291100Z 2912/3012 03010KT CAVOK
Forecast period: 1200 to 1600 UTC 29 May 2020
Forecast type: FROM: standard forecast or significant change
Winds: from the NNE (30 degrees) at 12 MPH (10 knots; 5.1 m/s)
Visibility: 6 or more miles 10+ km)
Ceiling: unknown
Clouds: missing
Weather: NSW  (no significant weather)
Text: BECMG 2916/2619 VRB05KT
Forecast period: 1600 UTC 29 May 2020 to 1000 UTC 30 May 2020
Forecast type: BECOMING: Conditions expected to become as follows by 1900 UTC 26 May 2020
Winds: variable direction winds at 6 MPH (5 knots; 2.6 m/s)
Visibility: 6 or more miles 10+ km)
Ceiling: unknown
Clouds: missing
Weather: NSW  (no significant weather)
Text: BECMG 3010/3012 03010KT
Forecast period: 1000 to 1200 UTC 30 May 2020
Forecast type: BECOMING: Conditions expected to become as follows by 1200 UTC 30 May 2020
Winds: from the NNE (30 degrees) at 12 MPH (10 knots; 5.1 m/s)
Visibility: 6 or more miles 10+ km)
Ceiling: unknown
Clouds: missing
Weather: NSW  (no significant weather)